sensor_id;sensor_type;location;lat;lon;timestamp;P1;durP1;ratioP1;P2;durP2;ratioP2
50649;SDS011;36621;60.058;30.346;2023-07-30T00:01:53;2.85;;;1.92;;
50649;SDS011;36621;60.058;30.346;2023-07-30T00:09:28;3.78;;;1.60;;
50649;SDS011;36621;60.058;30.346;2023-07-30T00:17:01;3.55;;;1.70;;
50649;SDS011;36621;60.058;30.346;2023-07-30T00:24:34;5.97;;;1.83;;
50649;SDS011;36621;60.058;30.346;2023-07-30T00:32:07;2.95;;;1.83;;
50649;SDS011;36621;60.058;30.346;2023-07-30T00:39:39;4.07;;;1.90;;
50649;SDS011;36621;60.058;30.346;2023-07-30T00:47:12;4.07;;;1.90;;
50649;SDS011;36621;60.058;30.346;2023-07-30T00:54:45;3.75;;;1.63;;
50649;SDS011;36621;60.058;30.346;2023-07-30T01:02:19;4.68;;;2.00;;
50649;SDS011;36621;60.058;30.346;2023-07-30T01:09:53;3.75;;;1.77;;
50649;SDS011;36621;60.058;30.346;2023-07-30T01:17:26;3.33;;;1.67;;
50649;SDS011;36621;60.058;30.346;2023-07-30T01:24:59;5.63;;;2.10;;
50649;SDS011;36621;60.058;30.346;2023-07-30T01:32:32;2.72;;;1.58;;
50649;SDS011;36621;60.058;30.346;2023-07-30T01:40:06;3.97;;;2.72;;
50649;SDS011;36621;60.058;30.346;2023-07-30T01:47:40;3.30;;;2.03;;
50649;SDS011;36621;60.058;30.346;2023-07-30T01:55:13;4.20;;;1.88;;
50649;SDS011;36621;60.058;30.346;2023-07-30T02:02:45;3.10;;;1.83;;
50649;SDS011;36621;60.058;30.346;2023-07-30T02:10:18;3.30;;;1.48;;
50649;SDS011;36621;60.058;30.346;2023-07-30T02:17:51;3.78;;;1.88;;
50649;SDS011;36621;60.058;30.346;2023-07-30T02:25:24;5.07;;;2.03;;
50649;SDS011;36621;60.058;30.346;2023-07-30T02:32:56;4.90;;;2.10;;
50649;SDS011;36621;60.058;30.346;2023-07-30T02:40:29;3.72;;;1.83;;
50649;SDS011;36621;60.058;30.346;2023-07-30T02:48:01;5.25;;;1.70;;
50649;SDS011;36621;60.058;30.346;2023-07-30T02:55:34;3.97;;;1.88;;
50649;SDS011;36621;60.058;30.346;2023-07-30T03:03:07;4.22;;;1.90;;
50649;SDS011;36621;60.058;30.346;2023-07-30T03:10:40;3.92;;;1.75;;
50649;SDS011;36621;60.058;30.346;2023-07-30T03:18:12;3.15;;;1.60;;
50649;SDS011;36621;60.058;30.346;2023-07-30T03:25:45;3.58;;;1.70;;
50649;SDS011;36621;60.058;30.346;2023-07-30T03:33:17;5.82;;;1.70;;
50649;SDS011;36621;60.058;30.346;2023-07-30T03:40:50;4.10;;;1.63;;
50649;SDS011;36621;60.058;30.346;2023-07-30T03:48:22;4.07;;;1.83;;
50649;SDS011;36621;60.058;30.346;2023-07-30T03:55:55;3.45;;;1.60;;
50649;SDS011;36621;60.058;30.346;2023-07-30T04:03:27;4.28;;;1.83;;
50649;SDS011;36621;60.058;30.346;2023-07-30T04:11:00;3.88;;;1.73;;
50649;SDS011;36621;60.058;30.346;2023-07-30T04:18:33;5.07;;;2.17;;
50649;SDS011;36621;60.058;30.346;2023-07-30T04:26:06;4.53;;;1.98;;
50649;SDS011;36621;60.058;30.346;2023-07-30T04:33:38;5.47;;;1.95;;
50649;SDS011;36621;60.058;30.346;2023-07-30T04:41:11;3.08;;;1.52;;
50649;SDS011;36621;60.058;30.346;2023-07-30T04:48:48;11.18;;;8.15;;
50649;SDS011;36621;60.058;30.346;2023-07-30T04:56:24;3.38;;;2.13;;
50649;SDS011;36621;60.058;30.346;2023-07-30T05:03:58;5.97;;;1.52;;
50649;SDS011;36621;60.058;30.346;2023-07-30T05:11:30;4.60;;;1.63;;
50649;SDS011;36621;60.058;30.346;2023-07-30T05:19:02;3.40;;;1.90;;
50649;SDS011;36621;60.058;30.346;2023-07-30T05:26:36;2.58;;;1.50;;
50649;SDS011;36621;60.058;30.346;2023-07-30T05:34:08;4.18;;;1.77;;
50649;SDS011;36621;60.058;30.346;2023-07-30T05:41:40;2.83;;;1.60;;
50649;SDS011;36621;60.058;30.346;2023-07-30T05:49:12;3.28;;;1.70;;
50649;SDS011;36621;60.058;30.346;2023-07-30T05:56:46;4.70;;;1.60;;
50649;SDS011;36621;60.058;30.346;2023-07-30T06:04:18;6.43;;;2.28;;
50649;SDS011;36621;60.058;30.346;2023-07-30T06:11:51;3.78;;;1.90;;
50649;SDS011;36621;60.058;30.346;2023-07-30T06:19:23;4.32;;;1.88;;
50649;SDS011;36621;60.058;30.346;2023-07-30T06:26:56;4.43;;;2.17;;
50649;SDS011;36621;60.058;30.346;2023-07-30T06:34:28;6.82;;;2.13;;
50649;SDS011;36621;60.058;30.346;2023-07-30T06:42:01;4.13;;;2.30;;
50649;SDS011;36621;60.058;30.346;2023-07-30T06:49:33;3.45;;;2.15;;
50649;SDS011;36621;60.058;30.346;2023-07-30T06:57:06;4.03;;;2.00;;
50649;SDS011;36621;60.058;30.346;2023-07-30T07:04:38;4.30;;;2.42;;
50649;SDS011;36621;60.058;30.346;2023-07-30T07:12:11;4.35;;;2.30;;
50649;SDS011;36621;60.058;30.346;2023-07-30T07:19:43;4.18;;;2.70;;
50649;SDS011;36621;60.058;30.346;2023-07-30T07:27:16;5.10;;;2.05;;
50649;SDS011;36621;60.058;30.346;2023-07-30T07:34:49;3.95;;;2.58;;
50649;SDS011;36621;60.058;30.346;2023-07-30T07:42:22;4.38;;;2.28;;
50649;SDS011;36621;60.058;30.346;2023-07-30T07:49:55;4.22;;;2.38;;
50649;SDS011;36621;60.058;30.346;2023-07-30T07:57:28;4.45;;;2.03;;
50649;SDS011;36621;60.058;30.346;2023-07-30T08:05:01;4.60;;;2.30;;
50649;SDS011;36621;60.058;30.346;2023-07-30T08:12:38;3.40;;;2.10;;
50649;SDS011;36621;60.058;30.346;2023-07-30T08:20:10;9.32;;;2.33;;
50649;SDS011;36621;60.058;30.346;2023-07-30T08:27:43;6.03;;;2.60;;
50649;SDS011;36621;60.058;30.346;2023-07-30T08:35:16;4.38;;;2.20;;
50649;SDS011;36621;60.058;30.346;2023-07-30T08:42:49;3.72;;;2.28;;
50649;SDS011;36621;60.058;30.346;2023-07-30T08:50:21;6.15;;;2.30;;
50649;SDS011;36621;60.058;30.346;2023-07-30T08:57:55;5.35;;;2.22;;
50649;SDS011;36621;60.058;30.346;2023-07-30T09:05:29;5.35;;;2.50;;
50649;SDS011;36621;60.058;30.346;2023-07-30T09:13:02;7.30;;;2.60;;
50649;SDS011;36621;60.058;30.346;2023-07-30T09:20:37;3.67;;;2.90;;
50649;SDS011;36621;60.058;30.346;2023-07-30T09:28:11;3.42;;;2.15;;
50649;SDS011;36621;60.058;30.346;2023-07-30T09:35:46;6.43;;;3.30;;
50649;SDS011;36621;60.058;30.346;2023-07-30T09:43:19;3.33;;;2.00;;
50649;SDS011;36621;60.058;30.346;2023-07-30T09:50:52;5.18;;;2.22;;
50649;SDS011;36621;60.058;30.346;2023-07-30T09:58:26;5.38;;;2.40;;
50649;SDS011;36621;60.058;30.346;2023-07-30T10:06:01;4.25;;;2.17;;
50649;SDS011;36621;60.058;30.346;2023-07-30T10:13:35;2.28;;;1.77;;
50649;SDS011;36621;60.058;30.346;2023-07-30T10:21:09;4.50;;;2.00;;
50649;SDS011;36621;60.058;30.346;2023-07-30T10:28:54;3.35;;;1.85;;
50649;SDS011;36621;60.058;30.346;2023-07-30T10:36:43;3.70;;;2.40;;
50649;SDS011;36621;60.058;30.346;2023-07-30T10:44:17;5.00;;;2.13;;
50649;SDS011;36621;60.058;30.346;2023-07-30T10:51:51;4.40;;;2.22;;
50649;SDS011;36621;60.058;30.346;2023-07-30T10:59:25;6.60;;;2.70;;
50649;SDS011;36621;60.058;30.346;2023-07-30T11:06:57;6.40;;;2.20;;
50649;SDS011;36621;60.058;30.346;2023-07-30T11:14:30;4.40;;;2.30;;
50649;SDS011;36621;60.058;30.346;2023-07-30T11:22:02;2.92;;;2.08;;
50649;SDS011;36621;60.058;30.346;2023-07-30T11:29:38;4.20;;;2.58;;
50649;SDS011;36621;60.058;30.346;2023-07-30T11:37:10;9.02;;;4.15;;
50649;SDS011;36621;60.058;30.346;2023-07-30T11:44:44;6.57;;;2.83;;
50649;SDS011;36621;60.058;30.346;2023-07-30T11:52:16;3.05;;;2.33;;
50649;SDS011;36621;60.058;30.346;2023-07-30T11:59:51;3.40;;;2.22;;
50649;SDS011;36621;60.058;30.346;2023-07-30T12:07:24;4.78;;;2.35;;
50649;SDS011;36621;60.058;30.346;2023-07-30T12:14:58;4.45;;;2.80;;
50649;SDS011;36621;60.058;30.346;2023-07-30T12:22:30;7.32;;;2.80;;
50649;SDS011;36621;60.058;30.346;2023-07-30T12:30:04;5.78;;;2.60;;
50649;SDS011;36621;60.058;30.346;2023-07-30T12:37:40;5.28;;;2.47;;
50649;SDS011;36621;60.058;30.346;2023-07-30T12:45:14;6.30;;;2.88;;
50649;SDS011;36621;60.058;30.346;2023-07-30T13:01:26;4.78;;;2.20;;
50649;SDS011;36621;60.058;30.346;2023-07-30T13:09:01;4.53;;;2.55;;
50649;SDS011;36621;60.058;30.346;2023-07-30T13:16:40;2.95;;;2.35;;
50649;SDS011;36621;60.058;30.346;2023-07-30T13:24:19;3.83;;;2.70;;
50649;SDS011;36621;60.058;30.346;2023-07-30T13:31:52;6.65;;;2.50;;
50649;SDS011;36621;60.058;30.346;2023-07-30T13:48:45;4.57;;;2.70;;
50649;SDS011;36621;60.058;30.346;2023-07-30T13:56:37;3.63;;;2.43;;
50649;SDS011;36621;60.058;30.346;2023-07-30T14:04:10;4.88;;;2.40;;
50649;SDS011;36621;60.058;30.346;2023-07-30T14:11:42;5.00;;;2.83;;
50649;SDS011;36621;60.058;30.346;2023-07-30T14:19:18;3.00;;;2.22;;
50649;SDS011;36621;60.058;30.346;2023-07-30T14:26:50;4.07;;;2.42;;
50649;SDS011;36621;60.058;30.346;2023-07-30T14:34:23;4.88;;;2.30;;
50649;SDS011;36621;60.058;30.346;2023-07-30T14:41:56;3.17;;;2.38;;
50649;SDS011;36621;60.058;30.346;2023-07-30T14:49:29;4.00;;;2.65;;
50649;SDS011;36621;60.058;30.346;2023-07-30T14:57:03;4.97;;;2.42;;
50649;SDS011;36621;60.058;30.346;2023-07-30T15:04:36;3.10;;;2.13;;
50649;SDS011;36621;60.058;30.346;2023-07-30T15:12:09;5.55;;;2.38;;
50649;SDS011;36621;60.058;30.346;2023-07-30T15:19:42;3.67;;;2.10;;
50649;SDS011;36621;60.058;30.346;2023-07-30T15:27:18;3.17;;;2.30;;
50649;SDS011;36621;60.058;30.346;2023-07-30T15:34:52;3.88;;;2.88;;
50649;SDS011;36621;60.058;30.346;2023-07-30T15:42:24;3.80;;;2.20;;
50649;SDS011;36621;60.058;30.346;2023-07-30T15:49:56;8.18;;;3.88;;
50649;SDS011;36621;60.058;30.346;2023-07-30T15:57:29;3.40;;;2.47;;
50649;SDS011;36621;60.058;30.346;2023-07-30T16:05:04;6.05;;;2.72;;
50649;SDS011;36621;60.058;30.346;2023-07-30T16:12:37;3.03;;;2.13;;
50649;SDS011;36621;60.058;30.346;2023-07-30T16:20:12;2.70;;;2.10;;
50649;SDS011;36621;60.058;30.346;2023-07-30T16:27:44;2.92;;;1.85;;
50649;SDS011;36621;60.058;30.346;2023-07-30T16:35:18;7.32;;;3.05;;
50649;SDS011;36621;60.058;30.346;2023-07-30T16:42:53;4.97;;;2.08;;
50649;SDS011;36621;60.058;30.346;2023-07-30T16:50:26;4.30;;;1.98;;
50649;SDS011;36621;60.058;30.346;2023-07-30T16:58:00;3.72;;;2.10;;
50649;SDS011;36621;60.058;30.346;2023-07-30T17:05:36;4.65;;;2.22;;
50649;SDS011;36621;60.058;30.346;2023-07-30T17:13:09;3.92;;;2.10;;
50649;SDS011;36621;60.058;30.346;2023-07-30T17:20:55;3.58;;;2.05;;
50649;SDS011;36621;60.058;30.346;2023-07-30T17:28:28;4.82;;;2.00;;
50649;SDS011;36621;60.058;30.346;2023-07-30T17:36:05;4.75;;;2.20;;
50649;SDS011;36621;60.058;30.346;2023-07-30T17:43:40;5.47;;;2.10;;
50649;SDS011;36621;60.058;30.346;2023-07-30T17:51:13;5.28;;;2.22;;
50649;SDS011;36621;60.058;30.346;2023-07-30T17:58:48;4.00;;;2.37;;
50649;SDS011;36621;60.058;30.346;2023-07-30T18:06:21;6.10;;;2.08;;
50649;SDS011;36621;60.058;30.346;2023-07-30T18:13:54;5.30;;;2.60;;
50649;SDS011;36621;60.058;30.346;2023-07-30T18:21:30;4.18;;;2.40;;
50649;SDS011;36621;60.058;30.346;2023-07-30T18:29:02;4.53;;;3.20;;
50649;SDS011;36621;60.058;30.346;2023-07-30T18:36:36;6.38;;;2.30;;
50649;SDS011;36621;60.058;30.346;2023-07-30T18:44:08;5.38;;;3.00;;
50649;SDS011;36621;60.058;30.346;2023-07-30T18:51:47;6.32;;;2.80;;
50649;SDS011;36621;60.058;30.346;2023-07-30T18:59:20;3.85;;;2.90;;
50649;SDS011;36621;60.058;30.346;2023-07-30T19:07:00;5.85;;;3.90;;
50649;SDS011;36621;60.058;30.346;2023-07-30T19:14:39;6.70;;;3.83;;
50649;SDS011;36621;60.058;30.346;2023-07-30T19:22:22;9.90;;;4.57;;
50649;SDS011;36621;60.058;30.346;2023-07-30T19:30:02;17.65;;;5.30;;
50649;SDS011;36621;60.058;30.346;2023-07-30T19:37:37;12.88;;;6.43;;
50649;SDS011;36621;60.058;30.346;2023-07-30T19:45:11;12.00;;;5.63;;
50649;SDS011;36621;60.058;30.346;2023-07-30T19:52:44;10.32;;;5.85;;
50649;SDS011;36621;60.058;30.346;2023-07-30T20:00:19;18.20;;;9.40;;
50649;SDS011;36621;60.058;30.346;2023-07-30T20:07:53;19.80;;;8.40;;
50649;SDS011;36621;60.058;30.346;2023-07-30T20:15:25;19.58;;;8.23;;
50649;SDS011;36621;60.058;30.346;2023-07-30T20:22:58;27.15;;;12.05;;
50649;SDS011;36621;60.058;30.346;2023-07-30T20:30:31;31.90;;;9.88;;
50649;SDS011;36621;60.058;30.346;2023-07-30T20:38:05;46.60;;;13.25;;
50649;SDS011;36621;60.058;30.346;2023-07-30T20:45:37;36.65;;;10.27;;
50649;SDS011;36621;60.058;30.346;2023-07-30T20:53:10;28.80;;;10.40;;
50649;SDS011;36621;60.058;30.346;2023-07-30T21:00:45;22.48;;;8.80;;
50649;SDS011;36621;60.058;30.346;2023-07-30T21:08:17;21.27;;;8.63;;
50649;SDS011;36621;60.058;30.346;2023-07-30T21:15:50;37.97;;;10.13;;
50649;SDS011;36621;60.058;30.346;2023-07-30T21:23:22;27.10;;;10.05;;
50649;SDS011;36621;60.058;30.346;2023-07-30T21:31:01;20.52;;;8.60;;
50649;SDS011;36621;60.058;30.346;2023-07-30T21:38:34;23.27;;;7.25;;
50649;SDS011;36621;60.058;30.346;2023-07-30T21:46:06;21.70;;;8.00;;
50649;SDS011;36621;60.058;30.346;2023-07-30T21:53:39;23.30;;;9.10;;
50649;SDS011;36621;60.058;30.346;2023-07-30T22:01:11;26.30;;;10.90;;
50649;SDS011;36621;60.058;30.346;2023-07-30T22:08:44;23.10;;;7.97;;
50649;SDS011;36621;60.058;30.346;2023-07-30T22:16:16;28.48;;;8.73;;
50649;SDS011;36621;60.058;30.346;2023-07-30T22:23:49;24.50;;;8.38;;
50649;SDS011;36621;60.058;30.346;2023-07-30T22:31:21;24.02;;;8.10;;
50649;SDS011;36621;60.058;30.346;2023-07-30T22:38:54;25.73;;;9.77;;
50649;SDS011;36621;60.058;30.346;2023-07-30T22:46:26;39.97;;;10.02;;
50649;SDS011;36621;60.058;30.346;2023-07-30T22:53:59;36.00;;;12.05;;
50649;SDS011;36621;60.058;30.346;2023-07-30T23:01:31;33.05;;;10.85;;
50649;SDS011;36621;60.058;30.346;2023-07-30T23:09:04;30.98;;;11.15;;
50649;SDS011;36621;60.058;30.346;2023-07-30T23:16:36;36.53;;;10.45;;
50649;SDS011;36621;60.058;30.346;2023-07-30T23:24:09;30.65;;;9.70;;
50649;SDS011;36621;60.058;30.346;2023-07-30T23:31:41;29.52;;;11.05;;
50649;SDS011;36621;60.058;30.346;2023-07-30T23:39:14;26.10;;;10.43;;
50649;SDS011;36621;60.058;30.346;2023-07-30T23:46:46;68.72;;;15.60;;
50649;SDS011;36621;60.058;30.346;2023-07-30T23:54:19;79.88;;;14.98;;
